Time;durP1;ratioP1;P1;durP2;ratioP2;P2;SDS_P1;SDS_P2;PMS_P1;PMS_P2;Temp;Humidity;BMP_temperature;BMP_pressure;BME280_temperature;BME280_humidity;BME280_pressure;Samples;Min_cycle;Max_cycle;Signal;HPM_P1;HPM_P2
2023/06/11 00:00:20;;;;;;;17.35;9.63;;;;;;;18.48;87.41;100325.56;5013609;28;20030;-95
2023/06/11 00:02:46;;;;;;;14.65;9.52;;;;;;;18.38;88.13;100323.81;5013340;28;20033;-95
2023/06/11 00:05:11;;;;;;;16.77;9.90;;;;;;;18.27;89.37;100321.38;5013353;28;20025;-95
2023/06/11 00:07:40;;;;;;;13.23;9.43;;;;;;;18.27;90.09;100328.41;5013159;28;20030;-95
2023/06/11 00:10:06;;;;;;;11.23;8.40;;;;;;;18.20;90.42;100324.69;5012675;28;20033;-95
2023/06/11 00:12:32;;;;;;;15.13;9.80;;;;;;;18.17;89.32;100325.81;5013228;28;20627;-94
2023/06/11 00:15:01;;;;;;;16.13;10.57;;;;;;;18.18;88.66;100322.22;5012985;28;20407;-94
2023/06/11 00:17:27;;;;;;;13.52;9.65;;;;;;;18.08;90.00;100319.63;5013104;28;20026;-94
2023/06/11 00:19:52;;;;;;;12.23;9.07;;;;;;;18.18;89.35;100322.22;5012799;28;20044;-95
2023/06/11 00:22:18;;;;;;;16.92;10.15;;;;;;;18.20;89.71;100304.63;5012970;28;20018;-95
2023/06/11 00:24:43;;;;;;;16.55;10.68;;;;;;;18.07;91.58;100315.38;5013011;28;20065;-95
2023/06/11 00:27:09;;;;;;;16.60;9.90;;;;;;;17.97;92.38;100311.91;5012298;28;20041;-94
2023/06/11 00:29:34;;;;;;;18.05;10.80;;;;;;;18.09;90.64;100315.22;5012960;28;20055;-94
2023/06/11 00:32:00;;;;;;;18.05;11.60;;;;;;;18.06;91.52;100297.22;5012552;28;20475;-95
2023/06/11 00:34:26;;;;;;;14.50;10.80;;;;;;;18.00;92.07;100300.41;5012703;28;20026;-95
2023/06/11 00:36:52;;;;;;;14.02;9.80;;;;;;;18.09;91.61;100296.91;5012621;28;20034;-94
2023/06/11 00:39:18;;;;;;;14.82;11.23;;;;;;;18.04;92.64;100297.34;5012706;28;20024;-95
2023/06/11 00:41:45;;;;;;;17.95;10.90;;;;;;;17.97;92.93;100298.84;5012046;28;20399;-95
2023/06/11 00:44:17;;;;;;;15.15;10.95;;;;;;;18.06;93.03;100305.03;5012757;28;20026;-95
2023/06/11 00:46:45;;;;;;;14.85;8.85;;;;;;;18.02;93.93;100299.28;5012509;28;20032;-94
2023/06/11 00:49:11;;;;;;;13.20;10.45;;;;;;;18.02;95.29;100308.88;5012254;28;20075;-95
2023/06/11 00:51:40;;;;;;;15.35;10.30;;;;;;;18.15;94.57;100312.06;5012495;28;20018;-94
2023/06/11 00:54:05;;;;;;;16.50;10.30;;;;;;;18.08;94.78;100311.78;5012283;28;20025;-95
2023/06/11 00:56:33;;;;;;;13.70;9.55;;;;;;;18.05;94.39;100319.09;5011442;28;20403;-95
2023/06/11 00:58:59;;;;;;;18.70;11.40;;;;;;;18.12;94.22;100333.22;5011260;28;20468;-95
2023/06/11 01:01:31;;;;;;;15.25;9.93;;;;;;;18.11;92.91;100342.00;5012050;28;20581;-95
2023/06/11 01:04:00;;;;;;;16.83;10.88;;;;;;;18.17;92.87;100357.97;5012040;28;20014;-95
2023/06/11 01:06:28;;;;;;;19.42;11.73;;;;;;;18.19;92.38;100363.03;5012004;28;20025;-94
2023/06/11 01:08:57;;;;;;;19.40;12.00;;;;;;;18.14;93.04;100346.94;5012082;28;20483;-95
2023/06/11 01:11:23;;;;;;;16.10;12.07;;;;;;;18.22;94.58;100348.91;5012099;28;20022;-95
2023/06/11 01:13:49;;;;;;;14.02;11.45;;;;;;;18.25;95.21;100357.25;5011999;28;20103;-94
2023/06/11 01:16:20;;;;;;;16.90;11.85;;;;;;;18.20;96.37;100364.69;5012124;28;20095;-94
2023/06/11 01:19:03;;;;;;;18.73;12.50;;;;;;;18.23;95.87;100350.53;5011677;28;20077;-95
2023/06/11 01:21:39;;;;;;;15.57;11.95;;;;;;;18.22;96.96;100349.72;5011881;28;20038;-95
2023/06/11 01:24:33;;;;;;;16.05;11.60;;;;;;;18.11;98.69;100349.84;5011833;28;20022;-95
2023/06/11 01:27:09;;;;;;;19.73;12.55;;;;;;;18.14;98.67;100341.72;5010963;28;20030;-95
2023/06/11 01:29:38;;;;;;;19.77;13.52;;;;;;;18.30;96.95;100328.94;5011708;28;20488;-95
2023/06/11 01:32:05;;;;;;;17.90;12.45;;;;;;;18.36;96.13;100330.13;5011287;28;20022;-95
2023/06/11 01:34:31;;;;;;;20.80;14.35;;;;;;;18.40;95.58;100319.25;5011362;28;20096;-95
2023/06/11 01:36:57;;;;;;;18.45;13.40;;;;;;;18.28;96.56;100320.41;5011612;28;20026;-95
2023/06/11 01:39:23;;;;;;;25.30;16.35;;;;;;;18.17;97.29;100312.75;5011481;28;20494;-95
2023/06/11 01:41:48;;;;;;;26.50;16.00;;;;;;;18.27;100.00;100310.94;5011764;28;20068;-95
2023/06/11 01:44:14;;;;;;;23.17;15.35;;;;;;;18.32;100.00;100300.88;5011802;28;20052;-95
2023/06/11 01:46:39;;;;;;;17.83;14.40;;;;;;;18.28;100.00;100307.34;5011965;28;20041;-96
2023/06/11 01:49:05;;;;;;;19.95;15.02;;;;;;;18.24;100.00;100299.91;5011586;28;20032;-94
2023/06/11 01:51:30;;;;;;;23.63;16.35;;;;;;;18.29;100.00;100303.78;5011416;28;20049;-96
2023/06/11 01:53:56;;;;;;;23.60;15.02;;;;;;;18.26;100.00;100306.66;5011280;28;20018;-94
2023/06/11 01:56:22;;;;;;;24.58;16.02;;;;;;;18.20;100.00;100306.41;5011213;28;20018;-94
2023/06/11 01:58:47;;;;;;;19.25;15.00;;;;;;;18.28;100.00;100307.34;5011574;28;20034;-93
2023/06/11 02:01:13;;;;;;;19.15;14.07;;;;;;;18.18;100.00;100303.94;5011324;28;20504;-93
2023/06/11 02:03:40;;;;;;;28.00;17.33;;;;;;;18.15;100.00;100301.59;5011118;28;20026;-95
2023/06/11 02:06:07;;;;;;;17.25;14.43;;;;;;;18.17;100.00;100307.50;5010978;28;20033;-94
2023/06/11 02:08:32;;;;;;;20.35;14.50;;;;;;;18.07;100.00;100297.09;5012405;28;20530;-94
2023/06/11 02:10:57;;;;;;;21.20;16.30;;;;;;;18.06;100.00;100308.47;5014645;28;20030;-94
2023/06/11 02:13:25;;;;;;;23.13;17.80;;;;;;;17.96;100.00;100312.88;5016278;28;20029;-95
2023/06/11 02:15:50;;;;;;;23.30;16.95;;;;;;;18.00;100.00;100318.69;5014777;28;20034;-93
2023/06/11 02:18:16;;;;;;;22.88;16.38;;;;;;;17.95;100.00;100322.53;5015042;28;20045;-95
2023/06/11 02:20:41;;;;;;;20.73;15.20;;;;;;;17.93;100.00;100327.06;5016068;28;20041;-94
2023/06/11 02:23:07;;;;;;;18.45;13.10;;;;;;;17.92;100.00;100333.25;5014812;28;20026;-95
2023/06/11 02:25:32;;;;;;;18.65;13.63;;;;;;;17.88;100.00;100336.28;5014841;28;20048;-95
2023/06/11 02:27:57;;;;;;;24.70;16.65;;;;;;;17.85;100.00;100332.16;5012461;28;20025;-94
2023/06/11 02:30:23;;;;;;;23.67;17.38;;;;;;;17.81;100.00;100325.53;5013163;28;20113;-96
2023/06/11 02:32:48;;;;;;;22.92;16.80;;;;;;;17.87;100.00;100334.59;5014723;28;20037;-95
2023/06/11 02:35:13;;;;;;;25.75;18.10;;;;;;;17.90;100.00;100329.94;5016047;28;20076;-95
2023/06/11 02:37:39;;;;;;;25.65;18.02;;;;;;;17.92;100.00;100324.56;5014717;28;20463;-95
2023/06/11 02:40:05;;;;;;;21.35;16.00;;;;;;;17.90;100.00;100321.28;5015908;28;20032;-96
2023/06/11 02:42:30;;;;;;;24.73;18.00;;;;;;;17.88;100.00;100310.97;5014677;28;20076;-96
2023/06/11 02:44:56;;;;;;;23.83;17.33;;;;;;;17.78;100.00;100312.75;5013624;28;20435;-95
2023/06/11 02:47:21;;;;;;;26.52;18.77;;;;;;;17.95;100.00;100306.84;5013974;28;20018;-94
2023/06/11 02:49:46;;;;;;;25.77;17.92;;;;;;;17.94;100.00;100299.97;5014717;28;20033;-94
2023/06/11 02:52:12;;;;;;;25.67;18.17;;;;;;;17.92;100.00;100311.50;5014737;28;20476;-95
2023/06/11 02:54:37;;;;;;;23.60;17.00;;;;;;;17.87;100.00;100308.50;5014386;28;20029;-95
2023/06/11 02:57:03;;;;;;;24.85;17.67;;;;;;;17.89;100.00;100303.97;5015756;28;20033;-95
2023/06/11 02:59:28;;;;;;;26.65;18.15;;;;;;;17.77;100.00;100298.03;5014386;28;20017;-96
2023/06/11 03:01:54;;;;;;;28.30;17.23;;;;;;;17.84;100.00;100303.56;5014274;28;20410;-96
2023/06/11 03:04:20;;;;;;;23.45;17.70;;;;;;;17.73;100.00;100299.28;5014454;28;20506;-95
2023/06/11 03:06:45;;;;;;;28.30;19.88;;;;;;;17.72;100.00;100300.22;5014886;28;20084;-95
2023/06/11 03:09:10;;;;;;;28.20;20.10;;;;;;;17.61;100.00;100295.97;5014547;28;20119;-95
2023/06/11 03:11:36;;;;;;;24.10;18.95;;;;;;;17.60;100.00;100296.91;5014618;28;20056;-95
2023/06/11 03:14:01;;;;;;;23.92;17.48;;;;;;;17.61;100.00;100289.94;5014000;28;20040;-96
2023/06/11 03:16:27;;;;;;;26.65;18.42;;;;;;;17.67;100.00;100286.75;5013986;28;20026;-95
2023/06/11 03:18:52;;;;;;;27.50;18.42;;;;;;;17.64;100.00;100292.28;5013875;28;20472;-95
2023/06/11 03:21:18;;;;;;;28.48;20.05;;;;;;;17.69;100.00;100285.66;5014169;28;20030;-95
2023/06/11 03:23:43;;;;;;;22.23;18.48;;;;;;;17.63;100.00;100288.84;5014370;28;20029;-95
2023/06/11 03:26:08;;;;;;;27.08;19.38;;;;;;;17.42;100.00;100288.13;5014073;28;20403;-95
2023/06/11 03:28:34;;;;;;;23.17;18.38;;;;;;;17.38;100.00;100287.56;5013807;28;20022;-95
2023/06/11 03:31:00;;;;;;;23.77;17.23;;;;;;;17.38;100.00;100292.78;5013973;28;20021;-95
2023/06/11 03:33:25;;;;;;;29.48;20.55;;;;;;;17.37;100.00;100296.38;5013666;28;20414;-94
2023/06/11 03:35:50;;;;;;;25.80;18.90;;;;;;;17.28;100.00;100291.97;5013669;28;20396;-94
2023/06/11 03:38:16;;;;;;;20.55;17.48;;;;;;;17.26;100.00;100301.69;5013649;28;20029;-96
2023/06/11 03:40:41;;;;;;;25.98;18.25;;;;;;;17.30;100.00;100301.28;5013652;28;20057;-95
2023/06/11 03:43:07;;;;;;;24.83;18.63;;;;;;;17.22;100.00;100293.31;5013660;28;20022;-96
2023/06/11 03:45:32;;;;;;;23.67;18.15;;;;;;;17.20;100.00;100297.03;5012762;28;20026;-96
2023/06/11 03:47:58;;;;;;;24.85;21.42;;;;;;;17.21;100.00;100290.84;5013645;28;20114;-95
2023/06/11 03:50:23;;;;;;;24.92;19.23;;;;;;;17.30;100.00;100290.03;5013701;28;20507;-95
2023/06/11 03:52:49;;;;;;;27.95;20.20;;;;;;;17.30;100.00;100290.84;5013553;28;20026;-94
2023/06/11 03:55:15;;;;;;;28.08;19.10;;;;;;;17.22;100.00;100282.91;5013658;28;20265;-95
2023/06/11 03:57:41;;;;;;;26.42;18.27;;;;;;;17.19;100.00;100277.09;5013471;28;20029;-95
2023/06/11 04:00:07;;;;;;;26.08;19.23;;;;;;;17.25;100.00;100280.00;5013193;28;20030;-95
2023/06/11 04:02:34;;;;;;;24.65;19.27;;;;;;;17.23;100.00;100294.16;5013236;28;20095;-95
2023/06/11 04:05:00;;;;;;;30.23;22.35;;;;;;;17.29;100.00;100283.19;5013164;28;20030;-95
2023/06/11 04:07:26;;;;;;;34.92;24.77;;;;;;;17.24;100.00;100280.13;5013100;28;20479;-95
2023/06/11 04:09:52;;;;;;;28.83;20.35;;;;;;;17.29;100.00;100284.00;5013122;28;20041;-96
2023/06/11 04:12:17;;;;;;;30.65;23.50;;;;;;;17.35;100.00;100279.19;5013562;28;20116;-95
2023/06/11 04:14:42;;;;;;;33.15;25.50;;;;;;;17.32;100.00;100282.91;5014061;28;20030;-94
2023/06/11 04:17:08;;;;;;;38.60;27.85;;;;;;;17.30;100.00;100287.44;5012817;28;20053;-96
2023/06/11 04:19:33;;;;;;;33.75;22.70;;;;;;;17.30;100.00;100280.44;5013418;28;20491;-96
2023/06/11 04:21:58;;;;;;;35.38;26.45;;;;;;;17.28;100.00;100277.13;5014412;28;20037;-96
2023/06/11 04:24:24;;;;;;;28.40;21.42;;;;;;;17.30;100.00;100277.00;5013605;28;20030;-96
2023/06/11 04:26:51;;;;;;;32.83;24.80;;;;;;;17.36;100.00;100278.22;5013002;28;20476;-96
2023/06/11 04:29:18;;;;;;;35.35;24.83;;;;;;;17.49;100.00;100277.00;5013161;28;20030;-96
2023/06/11 04:31:46;;;;;;;32.97;23.33;;;;;;;17.45;100.00;100287.84;5013033;28;20468;-96
2023/06/11 04:34:16;;;;;;;41.83;28.20;;;;;;;17.35;100.00;100292.25;5012353;28;20040;-95
2023/06/11 04:36:42;;;;;;;36.42;27.80;;;;;;;17.35;100.00;100294.84;5013208;28;20510;-95
2023/06/11 04:39:08;;;;;;;44.92;28.35;;;;;;;17.33;100.00;100298.41;5012503;28;20026;-93
2023/06/11 04:41:36;;;;;;;34.08;26.20;;;;;;;17.34;100.00;100299.25;5012759;28;20492;-95
2023/06/11 04:44:03;;;;;;;39.58;25.75;;;;;;;17.34;100.00;100307.09;5012711;28;20029;-96
2023/06/11 04:46:29;;;;;;;38.35;27.77;;;;;;;17.39;100.00;100298.84;5011012;28;20030;-95
2023/06/11 04:48:59;;;;;;;38.85;25.95;;;;;;;17.33;100.00;100300.19;5014036;28;20105;-94
2023/06/11 04:51:25;;;;;;;38.97;26.60;;;;;;;17.23;100.00;100294.16;5012734;28;20095;-95
2023/06/11 04:53:52;;;;;;;32.88;24.98;;;;;;;17.30;100.00;100308.31;5012970;28;20177;-95
2023/06/11 04:56:17;;;;;;;34.58;26.48;;;;;;;17.36;100.00;100312.16;5012567;28;20076;-95
2023/06/11 04:58:42;;;;;;;34.55;25.70;;;;;;;17.26;100.00;100314.75;5012671;28;20025;-96
2023/06/11 05:01:08;;;;;;;29.05;21.85;;;;;;;17.28;100.00;100315.44;5012925;28;20109;-95
2023/06/11 05:03:37;;;;;;;33.55;24.55;;;;;;;17.34;100.00;100312.31;5012730;28;20495;-95
2023/06/11 05:06:04;;;;;;;33.83;24.77;;;;;;;17.41;100.00;100316.03;5012507;28;20026;-95
2023/06/11 05:08:29;;;;;;;29.80;23.80;;;;;;;17.39;100.00;100314.50;5012654;28;20037;-96
2023/06/11 05:10:56;;;;;;;31.77;22.13;;;;;;;17.41;100.00;100316.03;5012298;28;20026;-95
2023/06/11 05:13:27;;;;;;;30.65;24.38;;;;;;;17.36;100.00;100318.19;5012087;28;20026;-96
2023/06/11 05:15:54;;;;;;;36.40;28.35;;;;;;;17.36;100.00;100320.78;5011824;28;20108;-95
2023/06/11 05:18:20;;;;;;;39.30;27.00;;;;;;;17.23;100.00;100321.03;5012328;28;20026;-96
2023/06/11 05:20:47;;;;;;;32.55;23.65;;;;;;;17.29;100.00;100322.31;5012250;28;20030;-95
2023/06/11 05:23:14;;;;;;;33.28;23.33;;;;;;;17.34;100.00;100325.34;5012216;28;20030;-94
2023/06/11 05:25:46;;;;;;;30.58;24.77;;;;;;;17.30;100.00;100322.16;5011991;28;20014;-94
2023/06/11 05:28:12;;;;;;;39.72;24.85;;;;;;;17.32;100.00;100324.66;5011834;28;20026;-95
2023/06/11 05:30:38;;;;;;;42.00;27.92;;;;;;;17.32;100.00;100324.66;5011818;28;20022;-95
2023/06/11 05:33:05;;;;;;;37.53;25.77;;;;;;;17.39;100.00;100320.53;5011906;28;20380;-95
2023/06/11 05:35:30;;;;;;;33.65;22.85;;;;;;;17.41;100.00;100323.84;5011529;28;20026;-95
2023/06/11 05:37:55;;;;;;;33.88;26.45;;;;;;;17.47;100.00;100320.69;5012014;28;20484;-94
2023/06/11 05:40:21;;;;;;;40.85;25.98;;;;;;;17.51;100.00;100322.06;5011940;28;20022;-96
2023/06/11 05:42:47;;;;;;;39.97;27.20;;;;;;;17.52;100.00;100328.94;5013259;28;20026;-94
2023/06/11 05:45:12;;;;;;;37.88;26.92;;;;;;;17.64;100.00;100328.81;5009829;28;20034;-94
2023/06/11 05:47:38;;;;;;;29.02;21.67;;;;;;;17.67;100.00;100329.34;5011556;28;20380;-95
2023/06/11 05:50:04;;;;;;;32.65;23.80;;;;;;;17.75;100.00;100328.66;5012037;28;20393;-95
2023/06/11 05:52:29;;;;;;;33.58;23.13;;;;;;;17.75;100.00;100331.28;5011810;28;20396;-96
2023/06/11 05:54:54;;;;;;;37.13;27.48;;;;;;;17.71;100.00;100327.31;5011984;28;20026;-95
2023/06/11 05:57:22;;;;;;;39.17;26.85;;;;;;;17.72;100.00;100326.31;5012166;28;20117;-94
2023/06/11 05:59:47;;;;;;;35.35;24.63;;;;;;;17.80;100.00;100326.53;5011771;28;20030;-95
2023/06/11 06:02:13;;;;;;;31.15;24.80;;;;;;;17.88;100.00;100337.09;5011909;28;20472;-95
2023/06/11 06:04:38;;;;;;;35.47;24.20;;;;;;;17.96;100.00;100332.00;5013168;28;20029;-95
2023/06/11 06:07:04;;;;;;;37.90;25.42;;;;;;;17.90;100.00;100339.56;5011832;28;20030;-95
2023/06/11 06:09:30;;;;;;;33.75;24.38;;;;;;;17.88;100.00;100336.28;5010856;28;20038;-96
2023/06/11 06:11:55;;;;;;;46.20;28.30;;;;;;;18.06;100.00;100344.22;5010245;28;20042;-95
2023/06/11 06:14:20;;;;;;;38.53;27.23;;;;;;;18.08;100.00;100342.31;5010598;28;20472;-94
2023/06/11 06:16:46;;;;;;;36.50;26.35;;;;;;;18.05;100.00;100342.59;5010641;28;20030;-95
2023/06/11 06:19:11;;;;;;;40.40;29.10;;;;;;;18.09;100.00;100339.56;5008220;28;20453;-95
2023/06/11 06:21:36;;;;;;;36.42;25.15;;;;;;;18.10;100.00;100340.38;5009804;28;20034;-95
2023/06/11 06:24:02;;;;;;;35.88;26.58;;;;;;;18.08;100.00;100337.91;4993357;28;20019;-94
2023/06/11 06:26:28;;;;;;;37.70;27.73;;;;;;;18.18;100.00;100353.56;5010957;28;20125;-94
2023/06/11 06:28:53;;;;;;;41.97;27.70;;;;;;;18.16;100.00;100347.66;5011009;28;20365;-95
2023/06/11 06:31:20;;;;;;;35.08;26.67;;;;;;;18.07;100.00;100348.47;5010660;28;20168;-95
2023/06/11 06:33:46;;;;;;;42.88;27.55;;;;;;;18.13;100.00;100346.13;5010991;28;20029;-93
2023/06/11 06:36:12;;;;;;;34.35;25.88;;;;;;;18.15;100.00;100348.63;5011097;28;20100;-94
2023/06/11 06:38:37;;;;;;;32.10;22.58;;;;;;;18.17;100.00;100351.91;5010588;28;20464;-94
2023/06/11 06:41:03;;;;;;;37.45;27.02;;;;;;;18.25;100.00;100356.44;5010710;28;20362;-95
2023/06/11 06:43:29;;;;;;;44.85;30.83;;;;;;;18.07;100.00;100353.69;5010967;28;20080;-96
2023/06/11 06:45:54;;;;;;;40.38;28.17;;;;;;;18.11;100.00;100363.72;5006912;28;20030;-95
2023/06/11 06:48:22;;;;;;;41.10;27.42;;;;;;;18.23;100.00;100371.44;5003534;28;20116;-94
2023/06/11 06:50:47;;;;;;;33.33;25.75;;;;;;;18.24;100.00;100368.69;4993735;28;20023;-96
2023/06/11 06:53:14;;;;;;;35.90;27.08;;;;;;;18.24;100.00;100376.53;4991192;28;20487;-94
2023/06/11 06:55:40;;;;;;;28.35;22.77;;;;;;;18.28;100.00;100370.03;4995720;28;20109;-96
2023/06/11 06:58:05;;;;;;;34.65;23.52;;;;;;;18.36;100.00;100372.78;5006329;28;20122;-94
2023/06/11 07:00:31;;;;;;;37.15;23.80;;;;;;;18.41;100.00;100375.00;4997927;28;20053;-94
2023/06/11 07:02:56;;;;;;;35.72;24.63;;;;;;;18.44;100.00;100379.13;5013560;28;20034;-96
2023/06/11 07:05:24;;;;;;;32.83;23.73;;;;;;;18.55;100.00;100371.09;5017865;28;20047;-95
2023/06/11 07:07:50;;;;;;;33.75;23.35;;;;;;;18.64;100.00;100369.44;5012464;28;20477;-95
2023/06/11 07:10:17;;;;;;;31.17;24.35;;;;;;;18.71;100.00;100376.56;5014444;28;20038;-95
2023/06/11 07:12:42;;;;;;;39.60;25.05;;;;;;;18.85;100.00;100380.56;5013976;28;20109;-96
2023/06/11 07:15:08;;;;;;;43.95;27.13;;;;;;;19.05;100.00;100388.31;5014375;28;20548;-96
2023/06/11 07:17:33;;;;;;;41.97;26.45;;;;;;;19.05;100.00;100383.91;5013141;28;20036;-96
2023/06/11 07:19:59;;;;;;;40.88;26.77;;;;;;;19.07;99.48;100375.91;5011983;28;20037;-95
2023/06/11 07:22:24;;;;;;;36.63;25.40;;;;;;;19.33;98.58;100381.28;5013395;28;20018;-95
2023/06/11 07:24:50;;;;;;;42.20;25.48;;;;;;;19.48;96.69;100387.66;5024095;28;20040;-96
2023/06/11 07:27:16;;;;;;;40.38;25.23;;;;;;;19.59;96.07;100381.41;5025995;28;20044;-96
2023/06/11 07:29:41;;;;;;;39.13;25.40;;;;;;;19.62;96.04;100392.41;5015874;28;20376;-95
2023/06/11 07:32:07;;;;;;;38.33;24.83;;;;;;;19.75;95.11;100396.47;5015773;28;20190;-95
2023/06/11 07:34:33;;;;;;;40.85;26.08;;;;;;;20.05;95.67;100388.25;5013707;28;20045;-96
2023/06/11 07:36:58;;;;;;;40.92;26.75;;;;;;;20.19;91.68;100391.31;5015709;28;20038;-94
2023/06/11 07:39:24;;;;;;;37.75;24.15;;;;;;;20.27;90.92;100386.16;5015279;28;20032;-95
2023/06/11 07:41:49;;;;;;;41.45;26.20;;;;;;;20.43;89.96;100396.72;5015122;28;20088;-96
2023/06/11 07:44:18;;;;;;;35.05;24.25;;;;;;;20.52;88.39;100395.81;5016943;28;20026;-95
2023/06/11 07:46:46;;;;;;;34.63;24.10;;;;;;;20.80;86.75;100407.97;5019428;28;20049;-96
2023/06/11 07:49:11;;;;;;;33.10;24.48;;;;;;;21.13;85.70;100398.47;5017372;28;20079;-95
2023/06/11 07:51:37;;;;;;;31.70;22.95;;;;;;;21.28;83.30;100393.44;5023188;28;20026;-96
2023/06/11 07:54:04;;;;;;;40.08;23.88;;;;;;;21.66;82.19;100404.44;5019568;28;20068;-95
2023/06/11 07:56:30;;;;;;;31.50;20.95;;;;;;;22.21;80.12;100399.44;5014841;28;20095;-96
2023/06/11 07:58:56;;;;;;;33.55;23.20;;;;;;;22.25;77.87;100404.34;5015563;28;20022;-95
2023/06/11 08:01:21;;;;;;;37.58;23.75;;;;;;;22.37;77.72;100392.50;5015156;28;20403;-96
2023/06/11 08:03:46;;;;;;;28.55;20.38;;;;;;;22.57;76.28;100392.97;5018442;28;20036;-95
2023/06/11 08:06:12;;;;;;;32.97;23.50;;;;;;;22.61;74.75;100392.47;5019165;28;20122;-96
2023/06/11 08:08:40;;;;;;;28.40;20.40;;;;;;;22.79;76.10;100391.44;5016357;28;20026;-95
2023/06/11 08:11:06;;;;;;;29.88;20.98;;;;;;;23.11;74.61;100394.97;5016899;28;20034;-95
2023/06/11 08:13:34;;;;;;;29.65;20.25;;;;;;;23.06;73.38;100387.59;5021964;28;20033;-96
2023/06/11 08:16:01;;;;;;;31.60;23.85;;;;;;;23.00;72.67;100389.09;5016488;28;20030;-94
2023/06/11 08:18:26;;;;;;;31.15;21.90;;;;;;;22.82;73.54;100391.09;5011207;28;20550;-94
2023/06/11 08:20:55;;;;;;;27.10;20.63;;;;;;;22.91;74.70;100384.81;5012392;28;20087;-96
2023/06/11 08:23:20;;;;;;;34.50;23.98;;;;;;;23.12;73.97;100402.72;5018011;28;20032;-95
2023/06/11 08:25:46;;;;;;;29.73;21.88;;;;;;;22.99;73.73;100391.88;5014711;28;20472;-95
2023/06/11 08:28:11;;;;;;;30.73;21.67;;;;;;;22.92;73.16;100394.34;5014162;28;20029;-95
2023/06/11 08:30:36;;;;;;;31.58;22.50;;;;;;;22.76;74.60;100397.03;5013979;28;20480;-96
2023/06/11 08:33:02;;;;;;;33.20;21.38;;;;;;;22.58;74.77;100398.06;5015808;28;20052;-95
2023/06/11 08:35:27;;;;;;;31.73;21.52;;;;;;;22.32;75.51;100402.69;5015209;28;20109;-94
2023/06/11 08:37:53;;;;;;;29.02;20.88;;;;;;;22.22;76.40;100398.44;5013001;28;20431;-96
2023/06/11 08:40:19;;;;;;;30.48;19.88;;;;;;;22.15;77.14;100400.03;5017926;28;20358;-94
2023/06/11 08:42:46;;;;;;;30.50;19.58;;;;;;;22.20;77.69;100396.94;5014090;28;20061;-94
2023/06/11 08:45:18;;;;;;;29.33;19.88;;;;;;;22.17;78.10;100397.25;5020573;28;20116;-96
2023/06/11 08:47:53;;;;;;;27.95;18.52;;;;;;;22.31;76.36;100408.94;5023707;28;20048;-96
2023/06/11 08:50:24;;;;;;;29.00;18.50;;;;;;;22.20;77.60;100407.47;5022649;28;20022;-96
2023/06/11 08:52:53;;;;;;;31.58;20.73;;;;;;;22.06;78.26;100416.78;5021278;28;20136;-96
2023/06/11 08:55:18;;;;;;;28.58;19.13;;;;;;;22.08;78.81;100411.38;5022191;28;20033;-96
2023/06/11 09:03:05;;;;;;;31.38;21.13;;;;;;;21.51;81.28;100423.44;5019010;28;20295;-96
2023/06/11 09:05:31;;;;;;;34.40;22.95;;;;;;;21.31;82.48;100437.75;5017976;28;20593;-96
2023/06/11 09:08:14;;;;;;;29.42;20.90;;;;;;;21.22;84.12;100438.72;5025654;28;20029;-96
2023/06/11 09:10:50;;;;;;;34.88;22.80;;;;;;;21.02;84.90;100440.72;5018620;28;20404;-96
2023/06/11 09:13:19;;;;;;;33.05;21.75;;;;;;;21.07;86.34;100449.81;5014793;28;20026;-96
2023/06/11 09:15:57;;;;;;;36.25;22.83;;;;;;;20.84;88.43;100452.09;5016870;28;20030;-95
2023/06/11 09:18:25;;;;;;;25.85;20.27;;;;;;;20.89;88.44;100457.72;5013504;28;20095;-96
2023/06/11 09:21:00;;;;;;;30.38;21.88;;;;;;;20.77;88.25;100451.06;5012329;28;20241;-95
2023/06/11 09:23:31;;;;;;;38.42;23.25;;;;;;;20.65;89.95;100460.19;5014277;28;20504;-95
2023/06/11 09:26:00;;;;;;;29.80;20.60;;;;;;;20.98;88.26;100463.84;5012718;28;20060;-95
2023/06/11 09:28:32;;;;;;;30.55;19.58;;;;;;;20.89;87.71;100465.59;5012329;28;20385;-96
2023/06/11 09:30:59;;;;;;;28.65;19.40;;;;;;;20.83;89.13;100460.16;5011477;28;20369;-94
2023/06/11 09:33:29;;;;;;;28.42;20.65;;;;;;;20.75;89.43;100458.28;5011730;28;20030;-96
2023/06/11 09:35:55;;;;;;;30.83;19.63;;;;;;;20.76;88.87;100453.88;5012277;28;20038;-96
2023/06/11 09:38:21;;;;;;;28.02;19.85;;;;;;;20.69;89.63;100451.03;5012304;28;20095;-96
2023/06/11 09:40:54;;;;;;;29.85;20.67;;;;;;;20.78;89.09;100458.00;5010845;28;20484;-95
2023/06/11 09:43:23;;;;;;;28.17;21.13;;;;;;;20.78;88.63;100457.16;5012199;28;20036;-95
2023/06/11 09:45:52;;;;;;;28.27;20.15;;;;;;;20.82;88.93;100466.34;5012470;28;20049;-95
2023/06/11 09:48:24;;;;;;;32.42;21.40;;;;;;;20.57;89.04;100471.44;5012148;28;20022;-96
2023/06/11 09:50:52;;;;;;;29.60;19.20;;;;;;;20.47;89.42;100481.97;5012073;28;20129;-96
2023/06/11 09:53:19;;;;;;;35.00;19.83;;;;;;;20.40;90.17;100486.19;5013090;28;20033;-96
2023/06/11 09:55:49;;;;;;;28.27;21.00;;;;;;;20.24;91.14;100486.88;5010785;28;20061;-94
2023/06/11 09:58:23;;;;;;;29.38;20.17;;;;;;;20.35;91.25;100493.66;5012310;28;20112;-96
2023/06/11 10:00:58;;;;;;;30.02;19.63;;;;;;;20.32;91.52;100488.72;5011903;28;20018;-96
2023/06/11 10:03:24;;;;;;;28.33;20.65;;;;;;;20.19;91.38;100493.50;5011398;28;20030;-95
2023/06/11 10:05:50;;;;;;;26.30;18.48;;;;;;;20.18;91.58;100497.13;5013250;28;20022;-94
2023/06/11 10:08:20;;;;;;;26.08;17.92;;;;;;;20.08;96.94;100498.00;5010914;28;20380;-95
2023/06/11 10:10:50;;;;;;;25.02;17.63;;;;;;;20.02;97.58;100490.75;5010806;28;20160;-96
2023/06/11 10:13:32;;;;;;;28.65;20.00;;;;;;;19.92;100.00;100486.53;5011211;28;20124;-94
2023/06/11 10:16:01;;;;;;;33.13;22.17;;;;;;;19.95;100.00;100473.97;5011506;28;20026;-93
2023/06/11 10:18:27;;;;;;;32.72;23.05;;;;;;;20.02;100.00;100467.16;5006381;28;20061;-95
2023/06/11 10:20:56;;;;;;;31.42;21.63;;;;;;;19.98;100.00;100465.00;4992501;28;20065;-95
2023/06/11 10:23:21;;;;;;;30.60;21.25;;;;;;;19.83;100.00;100467.28;4992110;28;20373;-96
2023/06/11 10:25:54;;;;;;;33.30;23.13;;;;;;;19.83;100.00;100467.28;4992161;28;20030;-96
2023/06/11 10:28:33;;;;;;;26.65;21.10;;;;;;;19.74;100.00;100473.41;4993014;28;20417;-96
2023/06/11 10:30:59;;;;;;;30.65;23.67;;;;;;;19.89;100.00;100471.94;4997539;28;20022;-96
2023/06/11 10:33:37;;;;;;;34.80;24.08;;;;;;;19.77;100.00;100467.88;5011332;28;20172;-96
2023/06/11 10:36:02;;;;;;;34.17;24.77;;;;;;;19.85;100.00;100470.59;4998149;28;20515;-96
2023/06/11 10:38:37;;;;;;;33.25;24.73;;;;;;;19.71;100.00;100471.91;4996783;28;20094;-95
2023/06/11 10:41:03;;;;;;;30.58;24.42;;;;;;;19.62;100.00;100463.09;4996938;28;20061;-96
2023/06/11 10:43:32;;;;;;;34.30;26.35;;;;;;;19.71;100.00;100468.47;4997888;28;20027;-96
2023/06/11 10:46:02;;;;;;;40.20;25.95;;;;;;;19.69;100.00;100470.41;4998004;28;20038;-96
2023/06/11 10:48:29;;;;;;;40.60;28.52;;;;;;;19.78;100.00;100474.78;4998000;28;20500;-96
2023/06/11 10:51:05;;;;;;;35.13;24.70;;;;;;;19.80;100.00;100464.94;4999239;28;20061;-95
2023/06/11 10:53:40;;;;;;;40.28;28.63;;;;;;;19.85;100.00;100466.19;4998990;28;20026;-96
2023/06/11 10:56:13;;;;;;;39.10;27.80;;;;;;;19.83;100.00;100464.69;5000252;28;20037;-96
2023/06/11 10:58:39;;;;;;;40.97;30.63;;;;;;;19.92;100.00;100466.38;4999531;28;20499;-96
2023/06/11 11:01:06;;;;;;;39.80;29.17;;;;;;;19.93;100.00;100462.81;5000300;28;20038;-96
2023/06/11 11:03:33;;;;;;;42.42;29.40;;;;;;;19.96;100.00;100459.06;5001928;28;20030;-96
2023/06/11 11:05:59;;;;;;;42.47;31.33;;;;;;;19.94;100.00;100458.38;5017672;28;20033;-96
2023/06/11 11:08:25;;;;;;;44.63;31.25;;;;;;;19.91;100.00;100467.38;5017247;28;20017;-96